Time;durP1;ratioP1;P1;durP2;ratioP2;P2;SDS_P1;SDS_P2;PMS_P1;PMS_P2;Temp;Humidity;BMP_temperature;BMP_pressure;BME280_temperature;BME280_humidity;BME280_pressure;Samples;Min_cycle;Max_cycle;Signal;HPM_P1;HPM_P2
2021/12/18 00:03:26;;;;;;;;;;;2.40;99.90;;;1.01;100.00;97520.91;10366322;28;1917;-73
2021/12/18 00:08:30;;;;;;;;;;;2.30;99.90;;;0.80;100.00;97526.75;10360641;28;1958;-74
2021/12/18 00:13:33;;;;;;;;;;;2.10;99.90;;;0.68;100.00;97513.06;10363518;28;2073;-73
2021/12/18 00:18:36;;;;;;;;;;;1.90;99.90;;;0.73;100.00;97520.50;10361568;28;1827;-72
2021/12/18 00:23:39;;;;;;;;;;;1.70;99.90;;;0.91;100.00;97515.81;10356185;28;1826;-73
2021/12/18 00:28:42;;;;;;;;;;;1.80;99.90;;;0.74;100.00;97530.09;10358109;28;1894;-73
2021/12/18 00:33:45;;;;;;;;;;;1.80;99.90;;;0.53;100.00;97538.56;10351379;28;1930;-73
2021/12/18 00:38:48;;;;;;;;;;;1.70;99.90;;;0.44;100.00;97558.88;10349044;28;1882;-73
2021/12/18 00:44:04;;;;;;;;;;;1.50;99.90;;;0.45;100.00;97552.63;10356890;28;1838;-72
2021/12/18 00:49:07;;;;;;;;;;;1.50;99.90;;;0.28;100.00;97558.91;10357580;28;1847;-73
2021/12/18 00:54:11;;;;;;;;;;;1.40;99.90;;;0.22;100.00;97564.84;10367664;28;1991;-74
2021/12/18 00:59:14;;;;;;;;;;;1.40;99.90;;;0.17;100.00;97560.06;10369664;28;1772;-72
2021/12/18 01:04:18;;;;;;;;;;;1.20;99.90;;;0.14;100.00;97564.88;10384623;28;2059;-73
2021/12/18 01:09:32;;;;;;;;;;;;;;;0.26;100.00;97563.53;10385805;28;1728;-73
2021/12/18 01:14:52;;;;;;;;;;;;;;;0.19;100.00;97579.25;10396887;28;1956;-74
2021/12/18 01:25:18;;;;;;;;;;;;;;;-0.07;100.00;97603.13;10377108;28;1850;-72
2021/12/18 01:30:22;;;;;;;;;;;;;;;-0.03;100.00;97599.19;10364452;28;1964;-73
2021/12/18 01:35:25;;;;;;;;;;;;;;;-0.13;100.00;97601.16;10384097;28;1925;-72
2021/12/18 01:40:29;;;;;;;;;;;;;;;-0.10;100.00;97606.13;10381677;28;1815;-73
2021/12/18 01:45:44;;;;;;;;;;;;;;;-0.08;100.00;97595.38;10367362;28;1842;-73
2021/12/18 01:56:09;;;;;;;;;;;;;;;0.11;100.00;97570.47;10364733;28;1851;-73
2021/12/18 02:01:12;;;;;;;;;;;;;;;0.07;100.00;97558.56;10355980;28;2089;-73
2021/12/18 02:06:16;;;;;;;;;;;;;;;0.04;100.00;97553.59;10363499;28;1875;-71
2021/12/18 02:11:28;;;;;;;;;;;;;;;0.12;100.00;97550.94;10362566;28;1981;-73
2021/12/18 02:21:53;;;;;;;;;;;;;;;0.08;100.00;97550.47;10358763;28;1796;-71
2021/12/18 02:26:57;;;;;;;;;;;;;;;0.14;100.00;97544.53;10360046;28;1894;-73
2021/12/18 02:32:02;;;;;;;;;;;;;;;0.28;100.00;97552.78;10365136;28;1970;-74
2021/12/18 02:37:06;;;;;;;;;;;;;;;0.04;100.00;97551.78;10359781;28;2342;-73
2021/12/18 02:42:13;;;;;;;;;;;;;;;0.03;100.00;97550.13;10360307;28;1874;-74
2021/12/18 02:47:16;;;;;;;;;;;;;;;-0.13;100.00;97537.69;10360950;28;2017;-73
2021/12/18 02:52:19;;;;;;;;;;;;;;;-0.05;100.00;97527.16;10364714;28;2019;-72
2021/12/18 02:57:23;;;;;;;;;;;;;;;0.23;100.00;97529.47;10357476;28;2005;-73
2021/12/18 03:02:27;;;;;;;;;;;;;;;-0.01;100.00;97531.13;10363221;28;1981;-71
2021/12/18 03:07:31;;;;;;;;;;;;;;;-0.21;100.00;97529.78;10362627;28;2120;-71
2021/12/18 03:23:33;;;;;;;;;;;;;;;0.42;100.00;97500.03;10355604;28;2136;-73
2021/12/18 03:28:37;;;;;;;;;;;;;;;0.46;100.00;97505.84;10357404;28;2069;-72
2021/12/18 03:33:40;;;;;;;;;;;;;;;0.28;100.00;97513.94;10360396;28;2252;-73
2021/12/18 03:38:43;;;;;;;;;;;;;;;0.20;100.00;97508.66;10373304;28;2084;-71
2021/12/18 03:43:46;;;;;;;;;;;;;;;0.15;100.00;97509.16;10389236;28;2062;-71
2021/12/18 03:48:50;;;;;;;;;;;;;;;0.14;100.00;97511.97;10362901;28;1955;-73
2021/12/18 03:53:53;;;;;;;;;;;;;;;0.15;100.00;97513.63;10362499;28;2195;-73
2021/12/18 03:58:57;;;;;;;;;;;;;;;0.10;100.00;97513.28;10357205;28;1913;-73
2021/12/18 04:04:01;;;;;;;;;;;;;;;-0.02;100.00;97512.78;10362572;28;2017;-74
2021/12/18 04:09:05;;;;;;;;;;;;;;;-0.01;100.00;97506.50;10367344;28;1959;-72
2021/12/18 04:14:10;;;;;;;;;;;;;;;-0.18;100.00;97500.38;10365456;28;2192;-73
2021/12/18 04:19:13;;;;;;;;;;;;;;;-0.22;100.00;97514.91;10357909;28;1975;-73
2021/12/18 04:24:17;;;;;;;;;;;;;;;-0.26;100.00;97521.50;10362114;28;1990;-74
2021/12/18 04:29:20;;;;;;;;;;;;;;;-0.46;100.00;97520.16;10360739;28;2002;-72
2021/12/18 04:34:23;;;;;;;;;;;;;;;-0.34;100.00;97529.41;10369600;28;2089;-72
2021/12/18 04:39:27;;;;;;;;;;;;;;;-0.35;100.00;97527.78;10365794;28;1875;-73
2021/12/18 04:44:30;;;;;;;;;;;;;;;-0.48;100.00;97532.69;10361803;28;2091;-73
2021/12/18 04:49:34;;;;;;;;;;;;;;;-0.49;100.00;97531.03;10374759;28;1701;-74
2021/12/18 04:54:37;;;;;;;;;;;;;;;-0.55;100.00;97532.50;10369756;28;1975;-72
2021/12/18 04:59:43;;;;;;;;;;;;;;;-0.60;100.00;97530.34;10365752;28;2007;-73
2021/12/18 05:04:47;;;;;;;;;;;;;;;-0.34;100.00;97530.25;10367988;28;2109;-72
2021/12/18 05:09:50;;;;;;;;;;;;;;;-0.05;100.00;97529.81;10366844;28;2362;-73
2021/12/18 05:14:53;;;;;;;;;;;;;;;-0.20;100.00;97547.28;10371110;28;2386;-72
2021/12/18 05:19:57;;;;;;;;;;;;;;;-0.04;100.00;97536.75;10365105;28;2006;-71
2021/12/18 05:25:00;;;;;;;;;;;;;;;-0.16;100.00;97553.09;10359760;28;2114;-72
2021/12/18 05:30:04;;;;;;;;;;;;;;;0.07;100.00;97542.72;10354126;28;2061;-73
2021/12/18 05:35:07;;;;;;;;;;;;;;;-0.18;100.00;97542.69;10365945;28;1912;-71
2021/12/18 05:40:10;;;;;;;;;;;;;;;-0.31;100.00;97529.13;10365688;28;1914;-72
2021/12/18 05:45:14;;;;;;;;;;;;;;;-0.14;100.00;97530.78;10361100;28;1914;-72
2021/12/18 05:50:17;;;;;;;;;;;0.80;99.90;;;0.11;100.00;97530.78;10371285;28;1851;-73
2021/12/18 05:55:23;;;;;;;;;;;1.00;99.90;;;0.22;100.00;97539.22;10366595;28;1811;-72
2021/12/18 06:00:26;;;;;;;;;;;1.20;99.90;;;0.40;100.00;97530.31;10358788;28;1848;-72
2021/12/18 06:05:29;;;;;;;;;;;1.40;99.90;;;0.18;100.00;97539.72;10363498;28;1918;-73
2021/12/18 06:10:33;;;;;;;;;;;1.40;99.90;;;0.25;100.00;97530.13;10366906;28;1917;-73
2021/12/18 06:15:36;;;;;;;;;;;1.30;99.90;;;0.33;100.00;97546.03;10360872;28;1851;-73
2021/12/18 06:20:39;;;;;;;;;;;1.30;99.90;;;0.17;100.00;97562.69;10364822;28;1970;-73
2021/12/18 06:25:41;;;;;;;;;;;1.30;99.90;;;0.23;100.00;97551.47;10362762;28;2002;-72
2021/12/18 06:30:45;;;;;;;;;;;1.30;99.90;;;0.30;100.00;97551.63;10354444;28;2005;-73
2021/12/18 06:35:48;;;;;;;;;;;1.30;99.90;;;0.23;100.00;97542.69;10359648;28;1883;-73
2021/12/18 06:40:51;;;;;;;;;;;1.30;99.90;;;0.16;100.00;97542.53;10362583;28;1906;-73
2021/12/18 06:45:54;;;;;;;;;;;1.40;99.90;;;0.19;100.00;97529.00;10364507;28;1925;-73
2021/12/18 06:50:56;;;;;;;;;;;1.20;99.90;;;0.14;100.00;97541.06;10361129;28;1850;-73
2021/12/18 06:55:59;;;;;;;;;;;1.20;99.90;;;0.08;100.00;97539.91;10361981;28;1832;-73
2021/12/18 07:01:03;;;;;;;;;;;1.20;99.90;;;0.18;100.00;97531.78;10362593;28;1783;-73
2021/12/18 07:06:06;;;;;;;;;;;1.20;99.90;;;0.10;100.00;97531.78;10362768;28;1977;-72
2021/12/18 07:11:09;;;;;;;;;;;1.20;99.90;;;0.05;100.00;97527.00;10363551;28;1795;-73
2021/12/18 07:16:12;;;;;;;;;;;1.20;99.90;;;0.15;100.00;97529.50;10362080;28;1823;-72
2021/12/18 07:21:15;;;;;;;;;;;1.20;99.90;;;0.25;100.00;97519.56;10361692;28;1981;-72
2021/12/18 07:26:18;;;;;;;;;;;1.20;99.90;;;0.14;100.00;97527.84;10361672;28;1983;-71
2021/12/18 07:31:21;;;;;;;;;;;1.20;99.90;;;0.08;100.00;97524.03;10357604;28;1928;-73
2021/12/18 07:36:24;;;;;;;;;;;1.20;99.90;;;-0.16;100.00;97532.75;10364444;28;2069;-73
2021/12/18 07:41:27;;;;;;;;;;;1.10;99.90;;;-0.23;100.00;97530.94;10362473;28;1715;-71
2021/12/18 07:46:30;;;;;;;;;;;0.90;99.90;;;-0.15;100.00;97526.47;10361910;28;1918;-71
2021/12/18 07:51:34;;;;;;;;;;;1.00;99.90;;;-0.01;100.00;97543.50;10372305;28;1846;-73
2021/12/18 07:56:37;;;;;;;;;;;1.00;99.90;;;0.04;100.00;97537.75;10355318;28;1994;-73
2021/12/18 08:01:40;;;;;;;;;;;1.10;99.90;;;-0.28;100.00;97539.34;10367702;28;1827;-70
2021/12/18 08:06:43;;;;;;;;;;;1.00;99.90;;;-0.41;100.00;97545.09;10402608;28;2052;-72
2021/12/18 08:11:46;;;;;;;;;;;0.80;99.90;;;-0.45;100.00;97540.28;10364472;28;1834;-73
2021/12/18 08:16:50;;;;;;;;;;;0.60;99.90;;;-0.42;100.00;97546.09;10358115;28;1814;-72
2021/12/18 08:21:54;;;;;;;;;;;0.70;99.90;;;-0.32;100.00;97549.44;10361716;28;1945;-72
2021/12/18 08:26:57;;;;;;;;;;;0.60;99.90;;;-0.43;100.00;97548.91;10359712;28;1993;-72
2021/12/18 08:32:01;;;;;;;;;;;0.70;99.90;;;-0.28;100.00;97548.09;10355578;28;2179;-71
2021/12/18 08:37:04;;;;;;;;;;;0.70;99.90;;;0.03;100.00;97547.50;10365136;28;1846;-72
2021/12/18 08:42:07;;;;;;;;;;;1.00;99.90;;;-0.15;100.00;97544.97;10361686;28;1838;-73
2021/12/18 08:47:10;;;;;;;;;;;1.00;99.90;;;-0.15;100.00;97544.97;10357980;28;1987;-73
2021/12/18 08:52:13;;;;;;;;;;;0.90;99.90;;;-0.08;100.00;97540.69;10360080;28;1771;-73
2021/12/18 08:57:17;;;;;;;;;;;1.00;99.90;;;0.29;100.00;97543.88;10365724;28;2028;-73
2021/12/18 09:02:20;;;;;;;;;;;1.20;99.90;;;0.39;100.00;97537.41;10359249;28;1891;-73
2021/12/18 09:07:25;;;;;;;;;;;1.30;99.90;;;-0.03;100.00;97551.59;10354071;28;1918;-73
2021/12/18 09:12:28;;;;;;;;;;;1.20;99.90;;;-0.03;100.00;97542.84;10363558;28;1888;-74
2021/12/18 09:17:31;;;;;;;;;;;1.00;99.90;;;0.33;100.00;97540.72;10361924;28;1835;-73
2021/12/18 09:22:35;;;;;;;;;;;1.20;99.90;;;0.25;100.00;97540.72;10366827;28;1802;-73
2021/12/18 09:27:38;;;;;;;;;;;1.40;99.90;;;0.30;100.00;97533.09;10365698;28;1914;-72
2021/12/18 09:32:42;;;;;;;;;;;1.40;99.90;;;0.18;100.00;97539.72;10373331;28;1909;-73
2021/12/18 09:37:45;;;;;;;;;;;1.30;99.90;;;0.64;100.00;97529.47;10385845;28;1848;-72
2021/12/18 09:42:48;;;;;;;;;;;1.40;99.90;;;0.50;100.00;97539.69;10383447;28;1867;-72
2021/12/18 09:47:52;;;;;;;;;;;1.70;99.90;;;0.72;100.00;97526.78;10386389;28;1894;-73
2021/12/18 09:52:55;;;;;;;;;;;1.70;99.90;;;0.70;100.00;97523.47;10384705;28;1844;-71
2021/12/18 09:57:59;;;;;;;;;;;1.70;99.90;;;0.73;100.00;97518.66;10386800;28;1861;-72
2021/12/18 10:03:02;;;;;;;;;;;1.70;99.90;;;0.86;100.00;97517.31;10392735;28;1985;-73
2021/12/18 10:08:06;;;;;;;;;;;1.80;99.90;;;1.10;100.00;97504.00;10376443;28;1958;-72
2021/12/18 10:13:09;;;;;;;;;;;1.90;99.90;;;1.07;100.00;97494.56;10381305;28;1998;-72
2021/12/18 10:18:12;;;;;;;;;;;2.00;99.90;;;0.61;100.00;97496.19;10366017;28;1945;-71
2021/12/18 10:23:15;;;;;;;;;;;1.90;99.90;;;0.79;100.00;97494.16;10359363;28;1981;-72
2021/12/18 10:28:21;;;;;;;;;;;1.90;99.90;;;0.65;100.00;97489.59;10362169;28;1858;-72
2021/12/18 10:33:25;;;;;;;;;;;1.80;99.90;;;0.79;100.00;97496.81;10360137;28;1878;-72
2021/12/18 10:38:28;;;;;;;;;;;1.80;99.90;;;0.62;100.00;97489.91;10361022;28;1788;-71
2021/12/18 10:43:32;;;;;;;;;;;1.70;99.90;;;0.49;100.00;97485.13;10361942;28;1922;-74
2021/12/18 10:48:35;;;;;;;;;;;1.70;99.90;;;0.75;100.00;97484.09;10369079;28;1847;-73
2021/12/18 10:53:38;;;;;;;;;;;1.70;99.90;;;1.02;100.00;97496.94;10366345;28;1848;-72
2021/12/18 10:58:41;;;;;;;;;;;1.90;99.90;;;0.73;100.00;97494.03;10361362;28;1806;-73
2021/12/18 11:03:45;;;;;;;;;;;2.00;99.90;;;0.93;100.00;97479.41;10360803;28;1930;-73
2021/12/18 11:08:48;;;;;;;;;;;2.00;99.90;;;0.83;100.00;97465.56;10368697;28;1799;-73
2021/12/18 11:13:51;;;;;;;;;;;1.90;99.90;;;1.27;100.00;97459.69;10362497;28;1851;-72
2021/12/18 11:18:55;;;;;;;;;;;2.00;99.90;;;1.33;100.00;97451.06;10358786;28;1934;-73
2021/12/18 11:24:00;;;;;;;;;;;2.20;99.90;;;1.11;100.00;97434.13;10363790;28;1914;-72
2021/12/18 11:29:04;;;;;;;;;;;2.30;99.90;;;1.19;100.00;97438.56;10356777;28;1831;-74
2021/12/18 11:34:07;;;;;;;;;;;2.20;99.90;;;0.97;100.00;97425.09;10362751;28;1893;-72
2021/12/18 11:39:11;;;;;;;;;;;2.20;99.90;;;1.21;100.00;97425.97;10365880;28;1846;-73
2021/12/18 11:44:15;;;;;;;;;;;2.20;99.90;;;0.84;100.00;97414.25;10351108;28;1987;-73
2021/12/18 11:49:19;;;;;;;;;;;2.00;99.90;;;1.10;100.00;97413.13;10361872;28;1956;-73
2021/12/18 11:54:22;;;;;;;;;;;2.00;99.90;;;1.19;100.00;97412.06;10356690;28;2247;-72
2021/12/18 11:59:25;;;;;;;;;;;2.10;99.90;;;1.02;100.00;97406.88;10358089;28;1788;-74
2021/12/18 12:04:28;;;;;;;;;;;2.10;99.90;;;0.89;100.00;97409.28;10361466;28;1989;-72
2021/12/18 12:09:35;;;;;;;;;;;2.00;99.90;;;0.91;100.00;97391.38;10365913;28;1961;-73
2021/12/18 12:14:39;;;;;;;;;;;2.00;99.90;;;1.10;100.00;97381.34;10362401;28;1874;-73
2021/12/18 12:19:42;;;;;;;;;;;2.00;99.90;;;1.50;100.00;97383.72;10360484;28;1831;-74
2021/12/18 12:24:46;;;;;;;;;;;2.20;99.90;;;1.19;100.00;97385.59;10359706;28;1938;-71
2021/12/18 12:29:50;;;;;;;;;;;2.40;99.90;;;0.55;100.00;97383.09;10371004;28;1823;-72
2021/12/18 12:34:53;;;;;;;;;;;2.00;99.90;;;0.76;100.00;97383.34;10378758;28;2006;-73
2021/12/18 12:39:56;;;;;;;;;;;1.80;99.90;;;1.00;100.00;97387.69;10356151;28;1928;-71
2021/12/18 12:45:03;;;;;;;;;;;1.80;99.90;;;1.37;100.00;97383.47;10352208;28;1911;-73
2021/12/18 12:50:07;;;;;;;;;;;2.20;99.90;;;1.64;100.00;97366.22;10354403;28;1884;-73
2021/12/18 12:55:10;;;;;;;;;;;2.40;99.90;;;1.06;100.00;97363.16;10355541;28;1940;-74
2021/12/18 13:00:14;;;;;;;;;;;2.30;99.90;;;1.02;100.00;97369.81;10358532;28;1920;-73
2021/12/18 13:05:17;;;;;;;;;;;2.20;99.90;;;0.63;100.00;97369.00;10358317;28;1914;-72
2021/12/18 13:10:21;;;;;;;;;;;1.90;99.90;;;0.62;100.00;97367.34;10366266;28;2153;-73
2021/12/18 13:15:24;;;;;;;;;;;1.80;99.90;;;0.98;100.00;97352.63;10360805;28;1847;-72
2021/12/18 13:20:32;;;;;;;;;;;1.80;99.90;;;0.43;100.00;97342.13;10367794;28;1929;-73
2021/12/18 13:25:38;;;;;;;;;;;1.90;99.90;;;0.20;100.00;97358.75;10365227;28;1985;-73
2021/12/18 13:30:43;;;;;;;;;;;1.60;99.90;;;0.25;100.00;97351.13;10360569;28;1862;-73
2021/12/18 13:35:47;;;;;;;;;;;1.40;99.90;;;0.35;100.00;97345.63;10362656;28;1866;-73
2021/12/18 13:40:51;;;;;;;;;;;1.50;99.90;;;0.36;100.00;97352.56;10368809;28;1925;-73
2021/12/18 13:45:54;;;;;;;;;;;1.40;99.90;;;0.28;100.00;97343.84;10354039;28;1918;-74
2021/12/18 13:50:57;;;;;;;;;;;1.50;99.90;;;0.46;100.00;97339.97;10367583;28;1842;-73
2021/12/18 13:56:02;;;;;;;;;;;1.50;99.90;;;0.51;100.00;97340.28;10366508;28;1911;-73
2021/12/18 14:01:05;;;;;;;;;;;1.40;99.90;;;0.66;100.00;97328.97;10360516;28;2032;-73
2021/12/18 14:06:08;;;;;;;;;;;1.60;99.90;;;0.66;100.00;97321.03;10368674;28;1973;-72
2021/12/18 14:11:12;;;;;;;;;;;1.70;99.90;;;0.58;100.00;97324.53;10358800;28;1901;-72
2021/12/18 14:16:14;;;;;;;;;;;1.70;99.90;;;0.48;100.00;97319.44;10363257;28;1878;-73
2021/12/18 14:21:18;;;;;;;;;;;1.60;99.90;;;0.43;100.00;97308.56;10357525;28;1827;-72
2021/12/18 14:26:21;;;;;;;;;;;1.70;99.90;;;0.18;100.00;97309.66;10369640;28;2206;-73
2021/12/18 14:31:25;;;;;;;;;;;1.40;99.90;;;-0.01;100.00;97305.56;10360856;28;1914;-72
2021/12/18 14:36:28;;;;;;;;;;;1.30;99.90;;;0.17;100.00;97302.72;10359540;28;1903;-73
2021/12/18 14:41:37;;;;;;;;;;;1.10;99.90;;;0.37;100.00;97319.81;10364087;28;1867;-69
2021/12/18 14:46:39;;;;;;;;;;;1.40;99.90;;;0.31;100.00;97317.03;10359281;28;1986;-73
2021/12/18 14:51:43;;;;;;;;;;;1.40;99.90;;;0.40;100.00;97316.03;10357884;28;1922;-73
2021/12/18 14:56:46;;;;;;;;;;;1.40;99.90;;;0.58;100.00;97307.84;10376782;28;2251;-73
2021/12/18 15:01:50;;;;;;;;;;;1.50;99.90;;;0.73;100.00;97306.09;10370555;28;1979;-73
2021/12/18 15:06:55;;;;;;;;;;;1.60;99.90;;;0.65;100.00;97304.31;10363499;28;1922;-73
2021/12/18 15:11:58;;;;;;;;;;;1.70;99.90;;;0.82;100.00;97283.84;10362070;28;1881;-74
2021/12/18 15:17:02;;;;;;;;;;;1.90;99.90;;;0.89;100.00;97283.97;10357865;28;1871;-71
2021/12/18 15:22:05;;;;;;;;;;;1.90;99.90;;;0.81;100.00;97282.22;10357008;28;1911;-76
2021/12/18 15:27:09;;;;;;;;;;;1.80;99.90;;;0.76;100.00;97284.56;10352042;28;2097;-72
2021/12/18 15:32:12;;;;;;;;;;;1.80;99.90;;;0.64;100.00;97280.69;10357347;28;1883;-71
2021/12/18 15:37:15;;;;;;;;;;;1.80;99.90;;;0.76;100.00;97285.41;10358998;28;2011;-72
2021/12/18 15:42:21;;;;;;;;;;;1.70;99.90;;;0.73;100.00;97292.88;10363046;28;1906;-73
2021/12/18 15:47:25;;;;;;;;;;;1.80;99.90;;;0.29;100.00;97288.13;10359720;28;2211;-73
2021/12/18 15:52:28;;;;;;;;;;;1.60;99.90;;;0.34;100.00;97280.50;10367142;28;1889;-73
2021/12/18 15:57:32;;;;;;;;;;;1.40;99.90;;;0.12;100.00;97275.94;10365756;28;1823;-73
2021/12/18 16:02:35;;;;;;;;;;;1.40;99.90;;;0.07;100.00;97270.38;10367877;28;1942;-73
2021/12/18 16:07:38;;;;;;;;;;;1.20;99.90;;;-0.14;100.00;97277.03;10362567;28;1932;-73
2021/12/18 16:12:42;;;;;;;;;;;1.00;99.90;;;-0.22;100.00;97282.34;10366772;28;1849;-73
2021/12/18 16:17:45;;;;;;;;;;;0.90;99.90;;;-0.35;100.00;97292.59;10367900;28;1980;-72
2021/12/18 16:22:49;;;;;;;;;;;0.80;99.90;;;-0.23;100.00;97288.63;10369214;28;1982;-72
2021/12/18 16:27:52;;;;;;;;;;;0.80;99.90;;;-0.11;100.00;97289.91;10372453;28;1933;-73
2021/12/18 16:32:55;;;;;;;;;;;0.90;99.90;;;-0.27;100.00;97295.22;10374690;28;1999;-73
2021/12/18 16:38:07;;;;;;;;;;;0.90;99.90;;;-0.35;100.00;97284.69;10372438;28;1819;-71
2021/12/18 16:43:10;;;;;;;;;;;0.80;99.90;;;-0.14;100.00;97282.31;10366291;28;1986;-73
2021/12/18 16:48:17;;;;;;;;;;;0.90;99.90;;;0.05;100.00;97285.56;10372524;28;1918;-74
2021/12/18 16:53:21;;;;;;;;;;;1.00;99.90;;;0.20;100.00;97283.88;10380055;28;1978;-73
2021/12/18 16:58:25;;;;;;;;;;;1.10;99.90;;;0.21;100.00;97280.22;10381052;28;1886;-74
2021/12/18 17:03:28;;;;;;;;;;;1.20;99.90;;;0.31;100.00;97270.25;10394058;28;1945;-73
2021/12/18 17:08:32;;;;;;;;;;;1.30;99.90;;;0.34;100.00;97264.63;10370271;28;1926;-73
2021/12/18 17:13:35;;;;;;;;;;;1.30;99.90;;;0.13;100.00;97267.03;10370465;28;1891;-73
2021/12/18 17:18:39;;;;;;;;;;;1.30;99.90;;;0.06;100.00;97269.53;10370898;28;2240;-73
2021/12/18 17:23:42;;;;;;;;;;;1.20;99.90;;;-0.05;100.00;97277.84;10384974;28;1877;-74
2021/12/18 17:28:46;;;;;;;;;;;1.10;99.90;;;-0.12;100.00;97279.53;10372987;28;1919;-73
2021/12/18 17:33:52;;;;;;;;;;;1.00;99.90;;;-0.07;100.00;97271.88;10375625;28;1815;-73
2021/12/18 17:38:58;;;;;;;;;;;1.00;99.90;;;-0.14;100.00;97265.63;10372728;28;1866;-73
2021/12/18 17:44:04;;;;;;;;;;;1.00;99.90;;;-0.13;100.00;97257.53;10369908;28;1898;-73
2021/12/18 17:49:08;;;;;;;;;;;0.90;99.90;;;-0.12;100.00;97261.84;10372611;28;1922;-72
2021/12/18 17:54:11;;;;;;;;;;;1.00;99.90;;;-0.20;100.00;97245.97;10370587;28;1775;-73
2021/12/18 17:59:14;;;;;;;;;;;1.00;99.90;;;-0.18;100.00;97257.22;10379818;28;1862;-72
2021/12/18 18:04:18;;;;;;;;;;;1.00;99.90;;;0.12;100.00;97254.78;10398887;28;1927;-73
2021/12/18 18:09:29;;;;;;;;;;;1.00;99.90;;;-0.04;100.00;97255.69;10389300;28;1899;-73
2021/12/18 18:14:32;;;;;;;;;;;1.20;99.90;;;-0.04;100.00;97253.06;10396379;28;1879;-74
2021/12/18 18:19:35;;;;;;;;;;;1.10;99.90;;;0.09;100.00;97239.28;10380802;28;1827;-72
2021/12/18 18:24:38;;;;;;;;;;;1.00;99.90;;;0.28;100.00;97241.50;10381863;28;1808;-71
2021/12/18 18:29:42;;;;;;;;;;;1.20;99.90;;;0.36;100.00;97241.47;10377486;28;1958;-73
2021/12/18 18:34:45;;;;;;;;;;;1.30;99.90;;;0.20;100.00;97236.28;10379632;28;1921;-72
2021/12/18 18:39:48;;;;;;;;;;;1.30;99.90;;;0.20;100.00;97226.50;10368444;28;1835;-73
2021/12/18 18:44:57;;;;;;;;;;;1.30;99.90;;;0.01;100.00;97239.34;10369303;28;1902;-73
2021/12/18 18:50:01;;;;;;;;;;;1.20;99.90;;;-0.06;100.00;97231.25;10370388;28;1949;-73
2021/12/18 18:55:07;;;;;;;;;;;1.10;99.90;;;-0.01;100.00;97234.19;10366132;28;2006;-71
2021/12/18 19:00:10;;;;;;;;;;;1.10;99.90;;;-0.31;100.00;97233.16;10362459;28;1847;-71
2021/12/18 19:05:14;;;;;;;;;;;1.00;99.90;;;-0.36;100.00;97232.84;10371736;28;1870;-73
2021/12/18 19:10:17;;;;;;;;;;;0.70;99.90;;;-0.48;100.00;97236.81;10370389;28;1922;-72
2021/12/18 19:15:20;;;;;;;;;;;0.70;99.90;;;-0.38;100.00;97226.88;10370842;28;1815;-75
2021/12/18 19:20:28;;;;;;;;;;;0.60;99.90;;;-0.26;100.00;97222.88;10370245;28;1938;-74
2021/12/18 19:25:31;;;;;;;;;;;0.70;99.90;;;-0.25;100.00;97221.91;10373644;28;1934;-74
2021/12/18 19:30:35;;;;;;;;;;;0.80;99.90;;;-0.07;100.00;97219.00;10356461;28;1866;-73
2021/12/18 19:35:39;;;;;;;;;;;0.90;99.90;;;-0.02;100.00;97222.78;10362673;28;2040;-75
2021/12/18 19:40:43;;;;;;;;;;;0.90;99.90;;;-0.13;100.00;97223.16;10366744;28;1848;-74
2021/12/18 19:45:46;;;;;;;;;;;1.00;99.90;;;-0.19;100.00;97221.22;10357055;28;1910;-73
2021/12/18 19:50:50;;;;;;;;;;;1.00;99.90;;;-0.23;100.00;97219.91;10365126;28;2047;-73
2021/12/18 19:55:53;;;;;;;;;;;0.90;99.90;;;-0.13;100.00;97224.97;10363419;28;1911;-73
2021/12/18 20:00:56;;;;;;;;;;;0.90;99.90;;;-0.01;100.00;97219.16;10375470;28;1832;-74
2021/12/18 20:06:00;;;;;;;;;;;1.00;99.90;;;0.05;100.00;97220.28;10383287;28;2010;-74
2021/12/18 20:11:03;;;;;;;;;;;1.10;99.90;;;0.20;100.00;97212.47;10381080;28;1794;-74
2021/12/18 20:16:06;;;;;;;;;;;1.10;99.90;;;-0.08;100.00;97212.91;10375111;28;1843;-72
2021/12/18 20:21:09;;;;;;;;;;;1.10;99.90;;;-0.07;100.00;97214.53;10361100;28;1909;-73
2021/12/18 20:26:12;;;;;;;;;;;1.00;99.90;;;-0.07;100.00;97211.91;10358538;28;1914;-74
2021/12/18 20:31:16;;;;;;;;;;;1.00;99.90;;;-0.09;100.00;97200.69;10360720;28;2131;-74
2021/12/18 20:36:22;;;;;;;;;;;1.00;99.90;;;0.02;100.00;97196.84;10361177;28;1842;-75
2021/12/18 20:41:25;;;;;;;;;;;1.00;99.90;;;0.13;100.00;97193.00;10364000;28;1874;-73
2021/12/18 20:46:29;;;;;;;;;;;1.10;99.90;;;-0.06;100.00;97184.50;10363067;28;1981;-73
2021/12/18 20:51:33;;;;;;;;;;;1.00;99.90;;;-0.16;100.00;97186.50;10364429;28;2072;-73
2021/12/18 20:56:36;;;;;;;;;;;0.90;99.90;;;-0.09;100.00;97195.41;10363743;28;2080;-74
2021/12/18 21:01:39;;;;;;;;;;;1.00;99.90;;;-0.26;100.00;97193.81;10361697;28;2172;-73
2021/12/18 21:06:43;;;;;;;;;;;0.90;99.90;;;-0.12;100.00;97185.19;10361752;28;2372;-74
2021/12/18 21:11:46;;;;;;;;;;;0.90;99.90;;;0.07;100.00;97175.19;10366558;28;1901;-72
2021/12/18 21:16:56;;;;;;;;;;;0.90;99.90;;;0.01;100.00;97179.34;10393876;28;1978;-73
2021/12/18 21:21:59;;;;;;;;;;;1.00;99.90;;;-0.04;100.00;97193.06;10380981;28;1898;-73
2021/12/18 21:27:04;;;;;;;;;;;0.90;99.90;;;0.04;100.00;97178.97;10363390;28;1911;-72
2021/12/18 21:32:07;;;;;;;;;;;0.90;99.90;;;-0.10;100.00;97177.06;10362834;28;1912;-73
2021/12/18 21:37:10;;;;;;;;;;;1.00;99.90;;;-0.28;100.00;97186.06;10366136;28;1799;-76
2021/12/18 21:42:13;;;;;;;;;;;0.90;99.90;;;-0.23;100.00;97188.19;10368991;28;1862;-75
2021/12/18 21:47:17;;;;;;;;;;;0.90;99.90;;;-0.16;100.00;97194.44;10357443;28;2083;-74
2021/12/18 21:52:20;;;;;;;;;;;0.90;99.90;;;-0.21;100.00;97188.84;10368115;28;1932;-73
2021/12/18 21:57:23;;;;;;;;;;;0.80;99.90;;;-0.06;100.00;97173.94;10363396;28;1846;-73
2021/12/18 22:02:26;;;;;;;;;;;0.90;99.90;;;-0.22;100.00;97166.06;10362201;28;1911;-75
2021/12/18 22:07:29;;;;;;;;;;;0.90;99.90;;;-0.29;100.00;97160.63;10363238;28;1985;-75
2021/12/18 22:12:33;;;;;;;;;;;0.70;99.90;;;-0.16;100.00;97162.72;10367688;28;2011;-73
2021/12/18 22:17:36;;;;;;;;;;;0.80;99.90;;;-0.08;100.00;97159.22;10359725;28;1819;-74
2021/12/18 22:22:39;;;;;;;;;;;0.80;99.90;;;-0.04;100.00;97169.28;10365990;28;1845;-74
2021/12/18 22:27:45;;;;;;;;;;;0.90;99.90;;;-0.11;100.00;97160.41;10360217;28;1906;-73
2021/12/18 22:32:49;;;;;;;;;;;0.90;99.90;;;-0.18;100.00;97158.63;10361248;28;1858;-72
2021/12/18 22:37:52;;;;;;;;;;;0.90;99.90;;;-0.31;100.00;97153.88;10358396;28;1915;-74
2021/12/18 22:42:56;;;;;;;;;;;0.80;99.90;;;-0.43;100.00;97160.53;10361301;28;1831;-74
2021/12/18 22:48:00;;;;;;;;;;;0.80;99.90;;;-0.39;100.00;97135.41;10362686;28;1910;-72
2021/12/18 22:53:04;;;;;;;;;;;0.60;99.90;;;-0.56;100.00;97132.84;10365705;28;1851;-73
2021/12/18 22:58:07;;;;;;;;;;;0.60;99.90;;;-0.38;100.00;97132.63;10359113;28;1807;-72
2021/12/18 23:03:11;;;;;;;;;;;0.60;99.90;;;-0.30;100.00;97137.03;10360379;28;1839;-71
2021/12/18 23:08:15;;;;;;;;;;;0.70;99.90;;;-0.31;100.00;97132.75;10365882;28;1977;-72
2021/12/18 23:13:34;;;;;;;;;;;0.70;99.90;;;-0.19;100.00;97134.00;10362598;28;1939;-72
2021/12/18 23:18:42;;;;;;;;;;;0.70;99.90;;;-0.14;100.00;97131.66;10373573;28;1930;-72
2021/12/18 23:23:45;;;;;;;;;;;0.80;99.90;;;-0.16;100.00;97136.28;10367468;28;2011;-71
2021/12/18 23:28:49;;;;;;;;;;;0.80;99.90;;;-0.24;100.00;97127.59;10374461;28;1950;-71
2021/12/18 23:33:52;;;;;;;;;;;0.80;99.90;;;-0.23;100.00;97130.06;10391189;28;1981;-73
2021/12/18 23:38:56;;;;;;;;;;;0.80;99.90;;;-0.23;100.00;97108.09;10391599;28;1978;-72
2021/12/18 23:46:29;;;;;;;;;;;0.80;99.90;;;-0.34;100.00;97111.94;10376602;28;1846;-73
2021/12/18 23:49:33;;;;;;;;;;;0.70;99.90;;;-0.27;100.00;97091.75;10393384;28;1895;-71
2021/12/18 23:54:38;;;;;;;;;;;0.70;99.90;;;-0.29;100.00;97089.28;10389181;28;1843;-72
2021/12/18 23:59:42;;;;;;;;;;;0.70;99.90;;;-0.58;100.00;97074.06;10387978;28;2012;-71
